createdAt,value
2019-02-22T00:01:30.114Z,53.20
2019-02-22T00:04:03.010Z,53.83
2019-02-22T00:06:34.695Z,54.17
2019-02-22T00:09:06.846Z,51.90
2019-02-22T00:11:38.330Z,52.73
2019-02-22T00:14:09.748Z,51.43
2019-02-22T00:16:41.100Z,53.63
2019-02-22T00:19:12.702Z,53.13
2019-02-22T00:21:44.429Z,52.33
2019-02-22T00:24:15.862Z,54.27
2019-02-22T00:26:48.473Z,52.60
2019-02-22T00:29:24.203Z,53.77
2019-02-22T00:31:55.831Z,51.37
2019-02-22T00:34:27.700Z,50.70
2019-02-22T00:37:01.053Z,51.73
2019-02-22T00:39:32.587Z,51.67
2019-02-22T00:42:04.092Z,52.33
2019-02-22T00:44:35.398Z,49.87
2019-02-22T00:47:06.917Z,47.77
2019-02-22T00:49:39.431Z,45.87
2019-02-22T00:52:11.461Z,44.70
2019-02-22T00:54:43.000Z,43.60
2019-02-22T00:57:14.799Z,43.33
2019-02-22T00:59:48.425Z,41.53
2019-02-22T01:02:20.092Z,43.47
2019-02-22T01:04:51.972Z,41.77
2019-02-22T01:07:23.247Z,40.17
2019-02-22T01:09:54.637Z,40.57
2019-02-22T01:12:26.275Z,40.00
2019-02-22T01:14:57.789Z,37.33
2019-02-22T01:17:30.599Z,40.97
2019-02-22T01:20:01.899Z,39.67
2019-02-22T01:22:34.643Z,37.60
2019-02-22T01:25:06.833Z,40.97
2019-02-22T01:27:38.153Z,40.20
2019-02-22T01:30:10.267Z,41.00
2019-02-22T01:32:41.609Z,40.23
2019-02-22T01:35:13.061Z,41.30
2019-02-22T01:37:44.558Z,41.13
2019-02-22T01:40:18.229Z,37.33
2019-02-22T01:42:50.706Z,33.87
2019-02-22T01:45:23.851Z,31.03
2019-02-22T01:47:55.199Z,30.93
2019-02-22T01:50:27.130Z,31.57
2019-02-22T01:52:59.239Z,31.07
2019-02-22T01:55:31.714Z,36.47
2019-02-22T01:58:02.986Z,35.17
2019-02-22T02:00:34.958Z,35.50
2019-02-22T02:03:06.869Z,34.63
2019-02-22T02:05:38.134Z,33.07
2019-02-22T02:08:09.537Z,33.03
2019-02-22T02:10:40.804Z,32.20
2019-02-22T02:13:12.065Z,33.73
2019-02-22T02:15:43.624Z,32.53
2019-02-22T02:18:14.948Z,32.93
2019-02-22T02:20:46.445Z,32.17
2019-02-22T02:23:18.157Z,31.27
2019-02-22T02:25:49.598Z,32.97
2019-02-22T02:28:21.054Z,32.37
2019-02-22T02:30:52.432Z,34.20
2019-02-22T02:33:23.728Z,30.30
2019-02-22T02:35:55.446Z,32.97
2019-02-22T02:38:27.283Z,31.60
2019-02-22T02:41:08.206Z,33.37
2019-02-22T02:43:31.740Z,33.10
2019-02-22T02:46:03.518Z,30.83
2019-02-22T02:48:35.277Z,29.97
2019-02-22T02:51:07.062Z,28.40
2019-02-22T02:53:39.947Z,27.70
2019-02-22T02:56:11.555Z,26.23
2019-02-22T02:58:43.112Z,25.97
2019-02-22T03:01:14.444Z,26.07
2019-02-22T03:03:45.928Z,27.30
2019-02-22T03:06:26.973Z,27.70
2019-02-22T03:08:59.551Z,26.13
2019-02-22T03:11:30.989Z,28.60
2019-02-22T03:14:02.272Z,26.00
2019-02-22T03:16:34.136Z,26.40
2019-02-22T03:19:06.008Z,27.23
2019-02-22T03:21:37.437Z,27.63
2019-02-22T03:24:09.295Z,27.57
2019-02-22T03:26:40.973Z,28.10
2019-02-22T03:29:12.534Z,25.97
2019-02-22T03:31:44.004Z,27.07
2019-02-22T03:34:15.397Z,28.60
2019-02-22T03:36:46.644Z,27.10
2019-02-22T03:39:17.916Z,26.97
2019-02-22T03:41:49.351Z,27.03
2019-02-22T03:44:20.918Z,25.00
2019-02-22T03:46:52.684Z,26.80
2019-02-22T03:49:24.085Z,26.37
2019-02-22T03:51:55.469Z,28.03
2019-02-22T03:54:26.962Z,28.20
2019-02-22T03:56:58.788Z,26.50
2019-02-22T03:59:30.646Z,27.10
2019-02-22T04:02:02.201Z,27.30
2019-02-22T04:04:34.839Z,26.13
2019-02-22T04:07:06.277Z,27.23
2019-02-22T04:09:39.571Z,27.63
2019-02-22T04:12:11.055Z,28.70
2019-02-22T04:14:42.306Z,28.33
2019-02-22T04:17:13.978Z,27.23
2019-02-22T04:19:47.210Z,26.07
2019-02-22T04:22:18.715Z,28.27
2019-02-22T04:24:50.202Z,27.63
2019-02-22T04:27:22.196Z,26.83
2019-02-22T04:29:53.572Z,25.10
2019-02-22T04:32:25.190Z,26.17
2019-02-22T04:34:56.664Z,25.83
2019-02-22T04:37:27.942Z,26.23
2019-02-22T04:39:59.877Z,25.37
2019-02-22T04:42:31.427Z,26.80
2019-02-22T04:45:02.762Z,26.33
2019-02-22T04:47:34.368Z,25.03
2019-02-22T04:50:06.487Z,25.20
2019-02-22T04:52:37.813Z,24.13
2019-02-22T04:55:09.513Z,24.87
2019-02-22T04:57:42.650Z,24.87
2019-02-22T05:00:14.113Z,25.70
2019-02-22T05:02:45.685Z,24.30
2019-02-22T05:05:17.299Z,25.23
2019-02-22T05:07:49.149Z,24.70
2019-02-22T05:10:20.779Z,25.33
2019-02-22T05:12:52.151Z,27.00
2019-02-22T05:15:23.441Z,25.87
2019-02-22T05:17:55.070Z,26.33
2019-02-22T05:20:27.542Z,25.23
2019-02-22T05:23:03.823Z,24.40
2019-02-22T05:25:32.316Z,25.33
2019-02-22T05:28:04.730Z,24.93
2019-02-22T05:30:36.679Z,24.40
2019-02-22T05:33:08.863Z,23.30
2019-02-22T05:35:40.560Z,24.57
2019-02-22T05:38:12.001Z,23.50
2019-02-22T05:40:43.431Z,25.03
2019-02-22T05:43:14.783Z,25.07
2019-02-22T05:45:46.159Z,26.23
2019-02-22T05:48:17.621Z,24.30
2019-02-22T05:50:49.001Z,23.90
2019-02-22T05:53:22.190Z,23.57
2019-02-22T05:55:53.515Z,26.00
2019-02-22T05:58:25.422Z,23.70
2019-02-22T06:00:56.768Z,24.50
2019-02-22T06:03:28.137Z,24.80
2019-02-22T06:05:59.553Z,22.97
2019-02-22T06:08:32.510Z,24.73
2019-02-22T06:11:03.885Z,25.07
2019-02-22T06:13:35.520Z,29.30
2019-02-22T06:16:06.933Z,25.77
2019-02-22T06:18:39.096Z,26.13
2019-02-22T06:21:12.062Z,25.80
2019-02-22T06:23:43.758Z,25.43
2019-02-22T06:26:15.212Z,24.83
2019-02-22T06:28:46.625Z,23.40
2019-02-22T06:31:18.315Z,25.27
2019-02-22T06:33:49.712Z,25.60
2019-02-22T06:36:22.503Z,24.93
2019-02-22T06:38:54.179Z,25.60
2019-02-22T06:41:26.146Z,29.60
2019-02-22T06:43:57.949Z,25.97
2019-02-22T06:46:31.419Z,29.03
2019-02-22T06:49:02.708Z,28.40
2019-02-22T06:51:34.547Z,24.13
2019-02-22T06:54:06.048Z,24.57
2019-02-22T06:56:37.763Z,26.77
2019-02-22T06:59:09.222Z,27.57
2019-02-22T07:01:41.002Z,26.07
2019-02-22T07:04:12.496Z,27.33
2019-02-22T07:06:44.348Z,25.77
2019-02-22T07:09:15.715Z,27.30
2019-02-22T07:11:52.842Z,24.53
2019-02-22T07:14:24.340Z,26.30
2019-02-22T07:16:57.908Z,24.40
2019-02-22T07:19:30.264Z,23.40
2019-02-22T07:22:01.933Z,25.07
2019-02-22T07:24:34.034Z,22.53
2019-02-22T07:27:05.759Z,25.43
2019-02-22T07:29:37.229Z,24.10
2019-02-22T07:32:11.208Z,24.43
2019-02-22T07:34:43.853Z,23.30
2019-02-22T07:37:15.316Z,25.83
2019-02-22T07:39:47.077Z,24.37
2019-02-22T07:42:18.444Z,26.40
2019-02-22T07:44:50.285Z,28.27
2019-02-22T07:47:21.838Z,25.07
2019-02-22T07:49:53.244Z,24.27
2019-02-22T07:52:24.747Z,24.93
2019-02-22T07:54:56.348Z,24.80
2019-02-22T07:57:27.992Z,25.47
2019-02-22T07:59:59.913Z,25.97
2019-02-22T08:02:31.812Z,25.63
2019-02-22T08:05:03.787Z,25.23
2019-02-22T08:07:35.472Z,25.37
2019-02-22T08:10:07.173Z,24.77
2019-02-22T08:12:38.901Z,24.53
2019-02-22T08:15:10.961Z,26.00
2019-02-22T08:17:42.605Z,25.93
2019-02-22T08:20:14.403Z,28.63
2019-02-22T08:22:46.221Z,25.53
2019-02-22T08:25:17.584Z,25.53
2019-02-22T08:27:53.852Z,26.63
2019-02-22T08:30:22.607Z,29.27
2019-02-22T08:32:54.292Z,27.40
2019-02-22T08:35:25.981Z,27.90
2019-02-22T08:37:57.473Z,28.27
2019-02-22T08:40:28.977Z,26.60
2019-02-22T08:43:00.310Z,26.83
2019-02-22T08:45:32.013Z,26.57
2019-02-22T08:48:03.381Z,25.80
2019-02-22T08:50:35.204Z,28.60
2019-02-22T08:53:07.187Z,30.93
2019-02-22T08:55:40.938Z,31.17
2019-02-22T08:58:12.955Z,35.20
2019-02-22T09:00:44.694Z,37.20
2019-02-22T09:03:16.187Z,36.37
2019-02-22T09:05:47.707Z,36.57
2019-02-22T09:08:19.156Z,35.20
2019-02-22T09:11:00.083Z,36.23
2019-02-22T09:13:23.831Z,36.60
2019-02-22T09:15:55.395Z,36.90
2019-02-22T09:18:26.716Z,36.60
2019-02-22T09:20:59.592Z,36.13
2019-02-22T09:23:33.126Z,46.87
2019-02-22T09:26:04.520Z,65.87
2019-02-22T09:28:35.851Z,79.57
2019-02-22T09:31:07.666Z,81.00
2019-02-22T09:33:39.200Z,84.33
2019-02-22T09:36:10.526Z,80.33
2019-02-22T09:38:42.156Z,81.60
2019-02-22T09:41:13.736Z,80.47
2019-02-22T09:43:54.536Z,76.30
2019-02-22T09:46:18.566Z,71.73
2019-02-22T09:48:51.384Z,67.90
2019-02-22T09:51:23.000Z,67.23
2019-02-22T09:53:54.614Z,61.30
2019-02-22T09:56:27.780Z,65.93
2019-02-22T09:58:59.112Z,63.10
2019-02-22T10:01:30.624Z,65.27
2019-02-22T10:04:02.578Z,64.80
2019-02-22T10:06:35.439Z,63.67
2019-02-22T10:09:07.733Z,62.03
2019-02-22T10:11:39.382Z,61.60
2019-02-22T10:14:10.959Z,56.70
2019-02-22T10:16:42.451Z,55.57
2019-02-22T10:19:13.843Z,55.83
2019-02-22T10:21:47.117Z,54.93
2019-02-22T10:24:18.763Z,53.87
2019-02-22T10:26:50.296Z,55.63
2019-02-22T10:29:21.724Z,56.97
2019-02-22T10:31:53.196Z,53.00
2019-02-22T10:34:26.165Z,52.13
2019-02-22T10:36:58.033Z,48.33
2019-02-22T10:39:29.493Z,48.90
2019-02-22T10:42:01.018Z,48.50
2019-02-22T10:44:32.475Z,50.33
2019-02-22T10:47:03.875Z,50.73
2019-02-22T10:49:35.369Z,53.00
2019-02-22T10:52:06.962Z,50.47
2019-02-22T10:54:38.503Z,48.63
2019-02-22T10:57:10.294Z,48.37
2019-02-22T10:59:41.888Z,51.40
2019-02-22T11:02:13.303Z,48.23
2019-02-22T11:04:45.001Z,45.47
2019-02-22T11:07:16.669Z,49.47
2019-02-22T11:09:48.341Z,47.03
2019-02-22T11:12:19.871Z,47.83
2019-02-22T11:14:52.803Z,45.03
2019-02-22T11:17:25.580Z,46.80
2019-02-22T11:19:57.139Z,45.60
2019-02-22T11:22:28.561Z,47.07
2019-02-22T11:25:00.491Z,45.60
2019-02-22T11:27:32.442Z,48.93
2019-02-22T11:30:04.473Z,47.50
2019-02-22T11:32:37.096Z,47.73
2019-02-22T11:35:09.779Z,48.63
2019-02-22T11:37:41.380Z,51.50
2019-02-22T11:40:13.136Z,50.73
2019-02-22T11:42:44.736Z,53.07
2019-02-22T11:45:17.963Z,54.30
2019-02-22T11:47:49.442Z,56.87
2019-02-22T11:50:21.010Z,56.87
2019-02-22T11:52:52.780Z,56.53
2019-02-22T11:55:24.549Z,57.07
2019-02-22T11:57:56.532Z,54.83
2019-02-22T12:00:29.338Z,56.50
2019-02-22T12:03:15.856Z,55.67
2019-02-22T12:05:37.844Z,57.13
2019-02-22T12:08:09.768Z,54.40
2019-02-22T12:10:41.713Z,52.20
2019-02-22T12:13:13.790Z,50.90
2019-02-22T12:15:45.274Z,45.97
2019-02-22T12:18:16.976Z,47.63
2019-02-22T12:20:49.031Z,46.93
2019-02-22T12:23:20.662Z,49.77
2019-02-22T12:25:52.107Z,49.67
2019-02-22T12:28:23.892Z,44.03
2019-02-22T12:30:55.190Z,42.00
2019-02-22T12:33:26.810Z,42.37
2019-02-22T12:35:58.217Z,43.50
2019-02-22T12:38:30.104Z,41.47
2019-02-22T12:41:01.858Z,42.07
2019-02-22T12:43:33.751Z,42.00
2019-02-22T12:46:05.505Z,41.57
2019-02-22T12:48:38.799Z,41.67
2019-02-22T12:51:10.379Z,43.20
2019-02-22T12:53:41.833Z,41.60
2019-02-22T12:56:13.526Z,41.50
2019-02-22T12:58:45.374Z,39.80
2019-02-22T13:01:17.469Z,39.40
2019-02-22T13:03:48.815Z,39.97
2019-02-22T13:06:20.218Z,40.27
2019-02-22T13:08:52.885Z,41.80
2019-02-22T13:11:24.433Z,43.33
2019-02-22T13:13:56.117Z,41.60
2019-02-22T13:16:27.703Z,43.47
2019-02-22T13:19:00.241Z,41.17
2019-02-22T13:21:31.715Z,42.07
2019-02-22T13:24:03.509Z,41.07
2019-02-22T13:26:36.489Z,44.63
2019-02-22T13:29:08.540Z,41.43
2019-02-22T13:31:40.605Z,41.67
2019-02-22T13:34:14.347Z,43.07
2019-02-22T13:36:45.718Z,42.73
2019-02-22T13:39:17.242Z,39.17
2019-02-22T13:41:48.676Z,41.50
2019-02-22T13:44:20.975Z,40.27
2019-02-22T13:46:52.601Z,41.17
2019-02-22T13:49:24.211Z,41.07
2019-02-22T13:51:56.033Z,40.37
2019-02-22T13:54:28.383Z,41.17
2019-02-22T13:56:59.768Z,41.30
2019-02-22T13:59:31.429Z,40.80
2019-02-22T14:02:03.379Z,39.77
2019-02-22T14:04:34.891Z,40.10
2019-02-22T14:07:06.225Z,39.30
2019-02-22T14:09:41.096Z,40.10
2019-02-22T14:12:12.772Z,39.50
2019-02-22T14:14:44.322Z,37.53
2019-02-22T14:17:15.912Z,38.63
2019-02-22T14:19:48.054Z,38.37
2019-02-22T14:22:19.498Z,37.10
2019-02-22T14:24:50.900Z,37.20
2019-02-22T14:27:22.318Z,37.80
2019-02-22T14:29:53.794Z,39.53
2019-02-22T14:32:26.431Z,37.20
2019-02-22T14:34:59.685Z,36.63
2019-02-22T14:37:30.927Z,38.23
2019-02-22T14:40:03.932Z,40.23
2019-02-22T14:42:36.638Z,40.53
2019-02-22T14:45:08.902Z,41.33
2019-02-22T14:47:40.475Z,42.23
2019-02-22T14:50:13.924Z,41.43
2019-02-22T14:52:46.046Z,43.47
2019-02-22T14:55:17.814Z,42.63
2019-02-22T14:57:49.443Z,44.77
2019-02-22T15:00:21.197Z,44.70
2019-02-22T15:02:52.981Z,44.87
2019-02-22T15:05:24.542Z,46.37
2019-02-22T15:07:56.270Z,47.30
2019-02-22T15:10:28.169Z,46.87
2019-02-22T15:12:59.834Z,47.93
2019-02-22T15:15:46.439Z,45.73
2019-02-22T15:18:17.880Z,46.83
2019-02-22T15:20:50.481Z,48.97
2019-02-22T15:23:22.314Z,48.70
2019-02-22T15:25:54.319Z,49.50
2019-02-22T15:28:26.528Z,50.20
2019-02-22T15:30:58.130Z,50.20
2019-02-22T15:33:31.262Z,51.67
2019-02-22T15:36:03.670Z,55.33
2019-02-22T15:38:36.181Z,62.90
2019-02-22T15:41:10.060Z,69.13
2019-02-22T15:43:42.234Z,73.03
2019-02-22T15:46:13.724Z,78.40
2019-02-22T15:48:45.167Z,81.63
2019-02-22T15:51:17.594Z,90.67
2019-02-22T15:53:49.180Z,86.87
2019-02-22T15:56:20.594Z,93.43
2019-02-22T15:58:52.305Z,92.37
2019-02-22T16:01:23.793Z,93.80
2019-02-22T16:04:03.544Z,95.83
2019-02-22T16:06:36.469Z,100.70
2019-02-22T16:09:08.013Z,96.20
2019-02-22T16:11:42.759Z,93.43
2019-02-22T16:14:14.607Z,85.43
2019-02-22T16:16:46.466Z,89.43
2019-02-22T16:19:17.971Z,91.83
2019-02-22T16:21:49.464Z,86.97
2019-02-22T16:24:20.876Z,88.43
2019-02-22T16:27:02.377Z,81.13
2019-02-22T16:29:34.573Z,79.63
2019-02-22T16:32:06.723Z,77.10
2019-02-22T16:34:43.372Z,77.10
2019-02-22T16:37:11.477Z,72.97
2019-02-22T16:39:42.861Z,72.50
2019-02-22T16:42:16.036Z,71.60
2019-02-22T16:44:47.497Z,69.97
2019-02-22T16:47:19.045Z,57.70
2019-02-22T16:49:50.567Z,51.37
2019-02-22T16:52:21.965Z,51.20
2019-02-22T16:54:53.489Z,50.37
2019-02-22T16:57:25.304Z,50.50
2019-02-22T16:59:57.270Z,51.60
2019-02-22T17:02:30.791Z,51.50
2019-02-22T17:05:02.185Z,53.63
2019-02-22T17:07:33.715Z,52.30
2019-02-22T17:10:05.403Z,51.40
2019-02-22T17:12:37.838Z,53.43
2019-02-22T17:15:10.367Z,51.10
2019-02-22T17:17:41.651Z,50.60
2019-02-22T17:20:12.977Z,52.47
2019-02-22T17:22:44.356Z,52.10
2019-02-22T17:25:16.104Z,51.50
2019-02-22T17:27:49.104Z,51.03
2019-02-22T17:30:20.916Z,49.57
2019-02-22T17:32:52.705Z,49.03
2019-02-22T17:35:24.614Z,47.03
2019-02-22T17:37:56.017Z,47.27
2019-02-22T17:40:27.775Z,45.40
2019-02-22T17:42:59.083Z,47.97
2019-02-22T17:45:30.561Z,43.20
2019-02-22T17:48:02.055Z,41.63
2019-02-22T17:50:33.633Z,42.30
2019-02-22T17:53:05.494Z,42.20
2019-02-22T17:55:36.881Z,42.67
2019-02-22T17:58:08.826Z,41.67
2019-02-22T18:00:40.292Z,42.77
2019-02-22T18:03:11.748Z,41.67
2019-02-22T18:05:43.613Z,42.80
2019-02-22T18:08:15.381Z,41.33
2019-02-22T18:10:46.785Z,39.70
2019-02-22T18:13:18.211Z,40.33
2019-02-22T18:15:51.539Z,42.83
2019-02-22T18:18:24.928Z,43.93
2019-02-22T18:20:56.459Z,43.43
2019-02-22T18:23:28.035Z,40.37
2019-02-22T18:25:59.700Z,39.70
2019-02-22T18:28:32.493Z,40.73
2019-02-22T18:31:04.251Z,42.23
2019-02-22T18:33:35.860Z,42.57
2019-02-22T18:36:11.051Z,43.00
2019-02-22T18:38:42.688Z,41.87
2019-02-22T18:41:14.371Z,40.80
2019-02-22T18:43:46.069Z,40.93
2019-02-22T18:46:17.471Z,40.90
2019-02-22T18:48:49.143Z,39.50
2019-02-22T18:51:21.412Z,39.27
2019-02-22T18:53:53.027Z,37.90
2019-02-22T18:56:24.436Z,40.30
2019-02-22T18:58:56.064Z,37.27
2019-02-22T19:01:27.808Z,38.13
2019-02-22T19:03:59.402Z,38.10
2019-02-22T19:06:31.223Z,38.03
2019-02-22T19:09:03.414Z,37.53
2019-02-22T19:11:37.656Z,39.07
2019-02-22T19:14:12.431Z,37.00
2019-02-22T19:16:44.520Z,37.00
2019-02-22T19:19:16.099Z,35.23
2019-02-22T19:21:48.354Z,34.90
2019-02-22T19:24:19.880Z,36.87
2019-02-22T19:26:51.365Z,34.47
2019-02-22T19:29:23.700Z,34.87
2019-02-22T19:31:55.480Z,34.23
2019-02-22T19:34:29.656Z,34.73
2019-02-22T19:37:00.977Z,40.83
2019-02-22T19:39:34.077Z,36.20
2019-02-22T19:42:05.999Z,35.10
2019-02-22T19:44:37.626Z,34.27
2019-02-22T19:47:09.140Z,33.67
2019-02-22T19:49:40.603Z,32.67
2019-02-22T19:52:13.022Z,31.57
2019-02-22T19:54:44.973Z,32.17
2019-02-22T19:57:16.487Z,33.87
2019-02-22T19:59:47.923Z,35.73
2019-02-22T20:02:19.626Z,43.43
2019-02-22T20:04:53.519Z,46.53
2019-02-22T20:07:24.055Z,42.47
2019-02-22T20:09:55.814Z,33.73
2019-02-22T20:12:29.141Z,32.63
2019-02-22T20:15:00.855Z,32.47
2019-02-22T20:17:32.624Z,34.20
2019-02-22T20:20:04.476Z,32.87
2019-02-22T20:22:40.427Z,30.23
2019-02-22T20:25:12.062Z,31.00
2019-02-22T20:27:44.516Z,31.13
2019-02-22T20:30:16.532Z,31.70
2019-02-22T20:32:48.387Z,28.97
2019-02-22T20:35:23.930Z,29.23
2019-02-22T20:38:02.066Z,29.10
2019-02-22T20:40:34.512Z,28.30
2019-02-22T20:43:09.507Z,30.10
2019-02-22T20:45:41.893Z,32.80
2019-02-22T20:48:13.640Z,31.40
2019-02-22T20:50:47.382Z,32.73
2019-02-22T20:53:18.949Z,31.73
2019-02-22T20:55:50.900Z,34.80
2019-02-22T20:58:22.341Z,36.50
2019-02-22T21:00:53.752Z,35.37
2019-02-22T21:03:25.515Z,35.27
2019-02-22T21:05:57.433Z,36.00
2019-02-22T21:08:29.139Z,35.67
2019-02-22T21:11:00.471Z,36.23
2019-02-22T21:13:31.997Z,34.93
2019-02-22T21:16:04.015Z,32.17
2019-02-22T21:18:35.486Z,32.40
2019-02-22T21:21:07.279Z,34.13
2019-02-22T21:23:38.669Z,34.30
2019-02-22T21:26:16.127Z,32.87
2019-02-22T21:28:49.340Z,33.13
2019-02-22T21:31:20.734Z,33.07
2019-02-22T21:33:52.094Z,33.10
2019-02-22T21:36:23.568Z,32.80
2019-02-22T21:38:55.324Z,33.63
2019-02-22T21:41:26.924Z,34.53
2019-02-22T21:44:00.347Z,32.17
2019-02-22T21:46:31.780Z,31.77
2019-02-22T21:49:03.874Z,30.93
2019-02-22T21:51:35.296Z,32.03
2019-02-22T21:54:06.582Z,34.17
2019-02-22T21:56:40.167Z,34.60
2019-02-22T21:59:11.937Z,33.07
2019-02-22T22:01:43.394Z,33.37
2019-02-22T22:04:16.768Z,33.70
2019-02-22T22:06:48.550Z,33.73
2019-02-22T22:09:19.944Z,33.17
2019-02-22T22:11:51.398Z,34.37
2019-02-22T22:14:22.788Z,34.67
2019-02-22T22:16:54.670Z,35.30
2019-02-22T22:19:26.244Z,33.03
2019-02-22T22:21:59.212Z,32.53
2019-02-22T22:24:30.817Z,32.43
2019-02-22T22:27:02.484Z,35.00
2019-02-22T22:29:34.154Z,37.63
2019-02-22T22:32:06.006Z,38.47
2019-02-22T22:34:37.481Z,38.37
2019-02-22T22:37:09.450Z,38.77
2019-02-22T22:39:41.990Z,37.87
2019-02-22T22:42:13.892Z,39.20
2019-02-22T22:44:45.492Z,38.73
2019-02-22T22:47:18.606Z,35.70
2019-02-22T22:49:50.276Z,37.77
2019-02-22T22:52:22.211Z,36.83
2019-02-22T22:54:55.407Z,36.80
2019-02-22T22:57:27.226Z,38.07
2019-02-22T22:59:58.860Z,37.53
2019-02-22T23:02:30.679Z,38.27
2019-02-22T23:05:03.020Z,38.13
2019-02-22T23:07:36.265Z,37.53
2019-02-22T23:10:08.747Z,39.13
2019-02-22T23:12:44.144Z,40.20
2019-02-22T23:15:15.089Z,40.53
2019-02-22T23:17:46.480Z,39.97
2019-02-22T23:20:18.199Z,38.73
2019-02-22T23:22:51.578Z,39.30
2019-02-22T23:25:24.104Z,39.60
2019-02-22T23:27:55.581Z,40.67
2019-02-22T23:30:27.015Z,40.77
2019-02-22T23:32:58.347Z,47.10
2019-02-22T23:35:29.792Z,50.13
2019-02-22T23:38:01.358Z,51.17
2019-02-22T23:40:33.114Z,51.27
2019-02-22T23:43:05.245Z,49.33
2019-02-22T23:45:36.829Z,47.40
2019-02-22T23:48:08.314Z,46.73
2019-02-22T23:50:40.046Z,47.33
2019-02-22T23:53:11.422Z,44.67
2019-02-22T23:55:42.817Z,46.63
2019-02-22T23:58:14.222Z,44.87
